KMCC/MCC METAR and TAF weather

Enter ICAO airport designator
Station Type Date Time Source
KMCC METAR 2021/09/25 12:15 UTC NOAA

KMCC 251215Z AUTO 15008KT 10SM OVC090 16/10 A2993 RMK AO2


Station Type Date Time Source
KMCC Decoded METAR 2021/09/25 12:15 UTC NOAA

Sacramento, McClellan Airfield Airport, CA, United States (KMCC) 38-40N 121-24W
Sep 25, 2021 - 08:15 AM EDT / 2021.09.25 1215 UTC
Wind: from the SSE (150 degrees) at 9 MPH (8 KT):0
Visibility: 10 mile(s):0
Sky conditions: overcast
Temperature: 60 F (16 C)
Dew Point: 50 F (10 C)
Relative Humidity: 67%
Pressure (altimeter): 29.93 in. Hg (1013 hPa)
ob: KMCC 251215Z AUTO 15008KT 10SM OVC090 16/10 A2993 RMK AO2
cycle: 12

Station Type Date Time Source
KMCC TAF 2021/09/25 12:26 UTC NOAA

TAF KMCC 251120Z 2512/2612 16008KT P6SM SKC
FM251800 22007KT P6SM SKC
FM260400 16010KT P6SM SKC

Example: see airport list